Time;durP1;ratioP1;P1;durP2;ratioP2;P2;SDS_P1;SDS_P2;PMS_P1;PMS_P2;Temp;Humidity;BMP_temperature;BMP_pressure;BME280_temperature;BME280_humidity;BME280_pressure;Samples;Min_cycle;Max_cycle;Signal;HPM_P1;HPM_P2
2022/06/09 00:01:52;;;;;;;11.93;8.10;;;15.60;99.90;;;;;;5055951;28;20055;-72
2022/06/09 00:04:39;;;;;;;17.00;8.75;;;15.60;99.90;;;;;;4995555;28;20046;-71
2022/06/09 00:07:10;;;;;;;12.30;8.68;;;15.60;99.90;;;;;;5041999;28;20061;-71
2022/06/09 00:09:39;;;;;;;;;;;15.60;99.90;;;;;;5057649;28;20025;-72
2022/06/09 00:12:05;;;;;;;17.02;8.93;;;15.50;99.90;;;;;;5062627;28;20042;-72
2022/06/09 00:14:32;;;;;;;16.80;10.20;;;15.60;99.90;;;;;;5061081;28;20477;-72
2022/06/09 00:16:57;;;;;;;14.43;9.15;;;15.60;99.90;;;;;;5056745;28;20021;-72
2022/06/09 00:19:23;;;;;;;16.27;10.38;;;15.50;99.90;;;;;;5064895;28;20142;-71
2022/06/09 00:21:49;;;;;;;13.77;9.48;;;15.60;99.90;;;;;;5066997;28;20111;-72
2022/06/09 00:24:15;;;;;;;17.45;10.82;;;15.60;99.90;;;;;;5065076;28;20021;-71
2022/06/09 00:26:41;;;;;;;19.13;10.52;;;15.60;99.90;;;;;;5092502;22;20049;-71
2022/06/09 00:29:07;;;;;;;14.35;9.65;;;15.60;99.90;;;;;;5057455;28;20363;-71
2022/06/09 00:31:32;;;;;;;14.55;10.57;;;15.60;99.90;;;;;;5057225;28;20025;-72
2022/06/09 00:33:58;;;;;;;15.43;11.68;;;15.50;99.90;;;;;;5050552;28;20084;-72
2022/06/09 00:36:24;;;;;;;20.63;12.57;;;15.60;99.90;;;;;;5054374;28;20025;-72
2022/06/09 00:38:50;;;;;;;18.60;12.23;;;15.60;99.90;;;;;;5057007;28;20433;-71
2022/06/09 00:41:16;;;;;;;19.35;12.60;;;15.50;99.90;;;;;;5057136;28;20021;-72
2022/06/09 00:43:43;;;;;;;18.77;13.40;;;15.60;99.90;;;;;;5058251;28;20040;-71
2022/06/09 00:46:26;;;;;;;21.15;13.73;;;15.60;99.90;;;;;;5058697;28;20374;-72
2022/06/09 00:49:01;;;;;;;17.70;12.70;;;15.60;99.90;;;;;;5025959;28;20378;-72
2022/06/09 00:51:44;;;;;;;15.80;12.23;;;15.60;99.90;;;;;;5040611;28;20048;-72
2022/06/09 00:54:14;;;;;;;23.00;13.98;;;15.60;99.90;;;;;;5056481;28;20088;-72
2022/06/09 00:56:48;;;;;;;27.02;13.88;;;15.60;99.90;;;;;;5057534;28;20024;-72
2022/06/09 00:59:16;;;;;;;22.25;13.48;;;15.60;99.90;;;;;;5059973;28;20082;-71
2022/06/09 01:01:43;;;;;;;20.27;14.52;;;15.60;99.90;;;;;;5061357;28;20390;-72
2022/06/09 01:04:11;;;;;;;22.10;15.43;;;15.60;99.90;;;;;;5062097;28;20037;-72
2022/06/09 01:06:51;;;;;;;21.48;14.40;;;15.60;99.90;;;;;;5044902;28;20047;-72
2022/06/09 01:09:26;;;;;;;20.33;14.77;;;15.50;99.90;;;;;;5061536;28;20478;-72
2022/06/09 01:11:54;;;;;;;24.33;17.02;;;15.60;99.90;;;;;;5041009;28;20198;-72
2022/06/09 01:14:25;;;;;;;24.90;15.77;;;15.50;99.90;;;;;;5060030;28;20021;-72
2022/06/09 01:16:53;;;;;;;26.15;16.98;;;15.50;99.90;;;;;;5040031;28;20021;-71
2022/06/09 01:19:38;;;;;;;22.98;16.10;;;15.40;99.90;;;;;;5041379;28;20025;-72
2022/06/09 01:22:22;;;;;;;26.83;16.27;;;15.40;99.90;;;;;;5043085;28;20051;-72
2022/06/09 01:25:22;;;;;;;26.45;16.60;;;15.40;99.90;;;;;;5027073;28;20089;-71
2022/06/09 01:28:25;;;;;;;27.88;17.05;;;15.50;99.90;;;;;;5046354;28;20107;-72
2022/06/09 01:31:18;;;;;;;30.85;18.58;;;15.50;99.90;;;;;;5059958;28;20017;-72
2022/06/09 01:33:52;;;;;;;31.27;19.00;;;15.50;99.90;;;;;;5058098;28;20021;-71
2022/06/09 01:36:30;;;;;;;29.00;20.63;;;15.60;99.90;;;;;;5058149;28;20079;-72
2022/06/09 01:38:57;;;;;;;30.25;20.00;;;15.60;99.90;;;;;;5042667;28;20017;-72
2022/06/09 01:41:25;;;;;;;32.30;21.10;;;15.60;99.90;;;;;;5039055;28;20025;-72
2022/06/09 01:43:53;;;;;;;34.83;21.13;;;15.60;99.90;;;;;;5039995;28;20029;-72
2022/06/09 01:46:21;;;;;;;37.10;23.17;;;15.60;99.90;;;;;;5040078;28;20025;-73
2022/06/09 01:48:51;;;;;;;36.70;22.58;;;15.60;99.90;;;;;;5058802;28;20020;-72
2022/06/09 01:51:19;;;;;;;35.28;23.13;;;15.60;99.90;;;;;;5063644;28;20036;-71
2022/06/09 01:53:50;;;;;;;37.42;22.50;;;15.60;99.90;;;;;;5060205;28;20040;-71
2022/06/09 01:56:21;;;;;;;36.72;23.83;;;15.70;99.90;;;;;;5058483;28;20024;-72
2022/06/09 01:58:57;;;;;;;36.72;23.52;;;15.70;99.90;;;;;;5059066;28;20039;-71
2022/06/09 02:01:27;;;;;;;40.92;24.23;;;15.70;99.90;;;;;;5058837;28;20017;-72
2022/06/09 02:03:57;;;;;;;43.30;25.27;;;15.70;99.90;;;;;;5055756;28;20048;-71
2022/06/09 02:06:24;;;;;;;44.30;25.20;;;15.70;99.90;;;;;;5056600;28;20103;-72
2022/06/09 02:08:50;;;;;;;41.00;25.75;;;15.70;99.90;;;;;;5055943;28;20021;-71
2022/06/09 02:11:16;;;;;;;44.83;23.38;;;15.70;99.90;;;;;;5055732;28;20063;-72
2022/06/09 02:13:50;;;;;;;43.17;25.33;;;15.70;99.90;;;;;;5057379;28;20029;-71
2022/06/09 02:16:21;;;;;;;46.25;23.98;;;15.70;99.90;;;;;;5055615;28;20032;-72
2022/06/09 02:18:51;;;;;;;43.42;25.17;;;15.70;99.90;;;;;;5058374;28;20017;-72
2022/06/09 02:21:17;;;;;;;42.35;26.35;;;15.70;99.90;;;;;;5062346;28;20021;-73
2022/06/09 02:23:45;;;;;;;46.85;27.55;;;15.70;99.90;;;;;;5039825;28;20029;-72
2022/06/09 02:26:10;;;;;;;47.15;25.73;;;15.80;99.90;;;;;;5039131;28;20025;-72
2022/06/09 02:28:36;;;;;;;44.85;26.35;;;15.70;99.90;;;;;;5056593;28;20040;-72
2022/06/09 02:31:02;;;;;;;47.35;26.88;;;15.70;99.90;;;;;;5036281;28;20025;-72
2022/06/09 02:33:28;;;;;;;45.92;27.42;;;15.70;99.90;;;;;;5056034;28;20130;-74
2022/06/09 02:35:54;;;;;;;53.10;26.70;;;15.70;99.90;;;;;;5055439;28;20084;-72
2022/06/09 02:38:21;;;;;;;47.33;27.42;;;15.70;99.90;;;;;;5057666;28;20025;-72
2022/06/09 02:40:47;;;;;;;51.25;25.83;;;15.70;99.90;;;;;;5056813;28;20024;-73
2022/06/09 02:43:13;;;;;;;50.65;27.23;;;15.70;99.90;;;;;;5056489;28;20397;-72
2022/06/09 02:45:39;;;;;;;49.13;26.20;;;15.70;99.90;;;;;;5055806;28;20021;-72
2022/06/09 02:48:06;;;;;;;43.83;25.88;;;15.70;99.90;;;;;;5055736;28;20488;-72
2022/06/09 02:50:33;;;;;;;45.25;26.63;;;15.80;99.90;;;;;;5055492;28;20021;-72
2022/06/09 02:52:59;;;;;;;48.33;26.52;;;15.80;99.90;;;;;;5037924;28;20028;-72
2022/06/09 02:55:26;;;;;;;52.90;28.05;;;15.80;99.90;;;;;;5056972;28;20108;-72
2022/06/09 02:57:51;;;;;;;48.35;27.02;;;15.80;99.90;;;;;;5055364;28;20020;-72
2022/06/09 03:00:23;;;;;;;44.65;27.20;;;15.80;99.90;;;;;;5041057;28;20051;-72
2022/06/09 03:02:54;;;;;;;49.05;28.55;;;15.80;99.90;;;;;;5057689;28;20381;-71
2022/06/09 03:05:20;;;;;;;50.45;27.30;;;15.80;99.90;;;;;;5057278;28;20025;-71
2022/06/09 03:07:46;;;;;;;50.90;28.05;;;15.80;99.90;;;;;;5056428;28;20029;-72
2022/06/09 03:10:13;;;;;;;44.88;27.05;;;15.80;99.90;;;;;;5055955;28;20029;-71
2022/06/09 03:12:38;;;;;;;52.20;28.60;;;15.80;99.90;;;;;;5056188;28;20047;-71
2022/06/09 03:15:07;;;;;;;52.35;29.63;;;15.80;99.90;;;;;;5037987;28;20025;-71
2022/06/09 03:17:34;;;;;;;50.25;26.60;;;15.80;99.90;;;;;;5038310;28;20550;-71
2022/06/09 03:20:00;;;;;;;51.05;28.70;;;15.80;99.90;;;;;;5056453;28;20018;-72
2022/06/09 03:22:25;;;;;;;50.28;27.67;;;15.80;99.90;;;;;;5055916;28;20075;-72
2022/06/09 03:24:51;;;;;;;50.55;28.92;;;15.80;99.90;;;;;;5038974;28;20021;-72
2022/06/09 03:27:17;;;;;;;53.70;27.65;;;15.80;99.90;;;;;;5040031;28;20104;-72
2022/06/09 03:29:42;;;;;;;53.80;30.20;;;15.70;99.90;;;;;;5056117;28;20107;-71
2022/06/09 03:32:08;;;;;;;50.90;30.38;;;15.80;99.90;;;;;;5038155;28;20059;-72
2022/06/09 03:34:34;;;;;;;54.25;29.85;;;15.80;99.90;;;;;;5058266;28;20036;-71
2022/06/09 03:37:00;;;;;;;57.20;30.00;;;15.80;99.90;;;;;;5038244;28;20104;-71
2022/06/09 03:39:26;;;;;;;58.70;30.83;;;15.80;99.90;;;;;;5056967;28;20024;-71
2022/06/09 03:41:51;;;;;;;52.03;30.85;;;15.80;99.90;;;;;;5057209;28;20017;-72
2022/06/09 03:44:17;;;;;;;51.35;29.98;;;15.80;99.90;;;;;;5057048;28;20462;-72
2022/06/09 03:46:42;;;;;;;48.72;28.98;;;15.80;99.90;;;;;;5037589;28;20060;-71
2022/06/09 03:49:09;;;;;;;54.65;30.05;;;15.80;99.90;;;;;;5056468;28;20083;-71
2022/06/09 03:51:35;;;;;;;51.72;29.42;;;15.80;99.90;;;;;;5058779;28;20111;-71
2022/06/09 03:54:01;;;;;;;54.40;29.75;;;15.80;99.90;;;;;;5039226;28;20048;-71
2022/06/09 03:56:26;;;;;;;50.33;28.98;;;15.80;99.90;;;;;;5056772;28;20079;-71
2022/06/09 03:58:52;;;;;;;50.95;28.27;;;15.80;99.90;;;;;;5039617;28;20044;-72
2022/06/09 04:01:18;;;;;;;45.17;27.85;;;15.90;99.90;;;;;;5058782;28;20029;-72
2022/06/09 04:03:45;;;;;;;54.03;28.45;;;15.80;99.90;;;;;;5042233;28;20021;-72
2022/06/09 04:06:17;;;;;;;43.85;26.77;;;15.90;99.90;;;;;;5060972;28;20025;-72
2022/06/09 04:08:42;;;;;;;;;;;15.90;99.90;;;;;;5059293;28;20080;-71
2022/06/09 04:11:08;;;;;;;47.53;28.27;;;15.90;99.90;;;;;;5061009;28;19947;-71
2022/06/09 04:13:34;;;;;;;56.20;28.70;;;15.90;99.90;;;;;;5041795;28;20453;-72
2022/06/09 04:15:59;;;;;;;51.97;29.23;;;15.90;99.90;;;;;;5061699;28;20029;-71
2022/06/09 04:18:25;;;;;;;55.50;29.33;;;15.90;99.90;;;;;;5061692;28;20025;-71
2022/06/09 04:20:51;;;;;;;54.78;29.52;;;15.90;99.90;;;;;;5046395;28;20037;-71
2022/06/09 04:23:16;;;;;;;51.33;26.98;;;15.90;99.90;;;;;;5058991;28;20036;-71
2022/06/09 04:25:42;;;;;;;47.45;26.42;;;15.90;99.90;;;;;;5036573;28;20032;-72
2022/06/09 04:28:08;;;;;;;47.53;27.45;;;16.00;99.90;;;;;;5054473;28;20112;-72
2022/06/09 04:30:33;;;;;;;46.75;27.70;;;16.00;99.90;;;;;;5058358;28;20027;-72
2022/06/09 04:32:59;;;;;;;49.40;27.25;;;16.00;99.90;;;;;;5040833;28;20025;-72
2022/06/09 04:35:25;;;;;;;46.22;24.35;;;16.00;99.90;;;;;;5061013;28;20021;-72
2022/06/09 04:38:00;;;;;;;42.90;26.20;;;16.00;99.90;;;;;;5059063;28;20021;-72
2022/06/09 04:40:37;;;;;;;40.88;25.10;;;16.00;99.90;;;;;;5061033;28;20407;-72
2022/06/09 04:43:05;;;;;;;41.25;25.77;;;16.10;99.90;;;;;;5064837;28;20033;-72
2022/06/09 04:45:32;;;;;;;43.75;26.02;;;16.10;99.90;;;;;;5061401;28;20052;-73
2022/06/09 04:47:57;;;;;;;48.17;26.15;;;16.10;99.90;;;;;;5041656;28;20494;-72
2022/06/09 04:50:24;;;;;;;45.55;25.85;;;16.10;99.90;;;;;;5060360;28;20029;-71
2022/06/09 04:52:51;;;;;;;44.67;26.00;;;16.10;99.90;;;;;;5042909;28;20029;-71
2022/06/09 04:55:16;;;;;;;48.42;24.60;;;16.20;99.90;;;;;;5040734;28;20390;-71
2022/06/09 04:57:42;;;;;;;43.83;25.02;;;16.20;99.90;;;;;;5058683;28;20021;-71
2022/06/09 05:00:10;;;;;;;44.55;25.73;;;16.20;99.90;;;;;;5043411;28;20031;-71
2022/06/09 05:02:36;;;;;;;45.85;26.50;;;16.20;99.90;;;;;;5043337;28;20029;-71
2022/06/09 05:05:03;;;;;;;49.03;24.88;;;16.30;99.90;;;;;;5041316;28;20088;-71
2022/06/09 05:07:28;;;;;;;43.03;25.13;;;16.30;99.90;;;;;;5058339;28;20181;-71
2022/06/09 05:09:54;;;;;;;45.28;26.20;;;16.30;99.90;;;;;;5058678;28;20021;-71
2022/06/09 05:12:21;;;;;;;41.40;26.17;;;16.30;99.90;;;;;;5042246;28;20029;-71
2022/06/09 05:14:46;;;;;;;47.92;24.90;;;16.40;99.90;;;;;;5061188;28;20028;-71
2022/06/09 05:17:12;;;;;;;40.15;23.98;;;16.30;99.90;;;;;;5061280;28;20025;-71
2022/06/09 05:19:38;;;;;;;42.97;24.10;;;16.30;99.90;;;;;;5060882;28;20032;-71
2022/06/09 05:22:04;;;;;;;40.40;23.42;;;16.30;99.90;;;;;;5060359;28;20021;-71
2022/06/09 05:24:29;;;;;;;41.60;23.95;;;16.30;99.90;;;;;;5051987;28;20025;-72
2022/06/09 05:26:55;;;;;;;40.05;23.70;;;16.30;99.90;;;;;;5034551;28;20036;-75
2022/06/09 05:29:21;;;;;;;41.72;24.05;;;16.40;99.90;;;;;;5055861;28;20041;-72
2022/06/09 05:31:46;;;;;;;45.78;22.75;;;16.40;99.90;;;;;;5035512;28;20021;-72
2022/06/09 05:34:12;;;;;;;41.22;23.48;;;16.40;99.90;;;;;;5017512;28;20092;-72
2022/06/09 05:36:38;;;;;;;37.72;22.02;;;16.30;99.90;;;;;;5035105;28;20505;-71
2022/06/09 05:44:51;;;;;;;36.88;20.20;;;16.30;99.90;;;;;;5036329;28;20079;-71
2022/06/09 05:47:20;;;;;;;35.35;19.52;;;16.20;99.90;;;;;;5036392;28;20032;-71
2022/06/09 05:49:50;;;;;;;41.20;19.60;;;16.30;99.90;;;;;;5018435;28;20022;-71
2022/06/09 05:52:18;;;;;;;31.55;19.60;;;16.30;99.90;;;;;;5036428;28;20021;-71
2022/06/09 05:54:44;;;;;;;37.70;18.27;;;16.20;99.90;;;;;;5036148;28;20025;-71
2022/06/09 05:57:10;;;;;;;33.55;19.38;;;16.20;99.90;;;;;;5018061;28;20029;-71
2022/06/09 05:59:37;;;;;;;31.42;18.02;;;16.20;99.90;;;;;;5035845;28;20076;-71
2022/06/09 06:02:04;;;;;;;32.13;18.65;;;16.20;99.90;;;;;;5035421;28;20028;-72
2022/06/09 06:04:29;;;;;;;31.23;17.80;;;16.20;99.90;;;;;;5035754;28;20022;-71
2022/06/09 06:06:55;;;;;;;24.08;15.50;;;16.10;99.90;;;;;;5017784;28;20402;-71
2022/06/09 06:09:21;;;;;;;28.42;16.77;;;16.10;99.90;;;;;;5035475;28;20104;-71
2022/06/09 06:11:47;;;;;;;26.92;14.57;;;16.10;99.90;;;;;;5035467;28;20030;-71
2022/06/09 06:14:14;;;;;;;34.45;15.80;;;16.10;99.90;;;;;;5035820;28;20432;-71
2022/06/09 06:16:40;;;;;;;25.90;14.15;;;16.20;99.90;;;;;;5035851;28;20029;-72
2022/06/09 06:19:08;;;;;;;23.88;14.13;;;16.20;99.90;;;;;;5017611;28;20489;-71
2022/06/09 06:21:36;;;;;;;29.00;13.85;;;16.30;99.90;;;;;;5036738;28;20037;-71
2022/06/09 06:24:03;;;;;;;27.17;14.88;;;16.40;99.90;;;;;;5037557;28;20026;-72
2022/06/09 06:28:56;;;;;;;23.40;13.23;;;16.60;99.90;;;;;;5055798;22;20042;-70
2022/06/09 06:31:22;;;;;;;29.42;13.48;;;16.70;99.90;;;;;;5034185;28;20022;-71
2022/06/09 06:33:47;;;;;;;24.95;13.68;;;16.70;99.90;;;;;;5034091;28;20025;-71
2022/06/09 06:36:13;;;;;;;26.00;13.20;;;16.70;99.90;;;;;;5034308;28;20356;-71
2022/06/09 06:38:40;;;;;;;24.10;12.32;;;16.80;99.90;;;;;;5034263;28;20021;-70
2022/06/09 06:41:07;;;;;;;24.67;12.13;;;16.80;99.90;;;;;;5034391;28;20021;-70
2022/06/09 06:43:33;;;;;;;24.50;13.55;;;16.80;99.90;;;;;;5033996;28;20025;-70
2022/06/09 06:45:58;;;;;;;23.85;12.80;;;16.70;99.90;;;;;;5033551;28;20505;-70
2022/06/09 06:48:24;;;;;;;22.02;12.70;;;16.60;99.90;;;;;;5033632;28;20118;-70
2022/06/09 06:50:50;;;;;;;21.85;12.23;;;16.60;99.90;;;;;;5033238;28;20031;-70
2022/06/09 06:53:16;;;;;;;17.10;10.95;;;16.50;99.90;;;;;;5034015;28;20041;-71
2022/06/09 06:55:42;;;;;;;16.60;10.68;;;16.60;99.90;;;;;;5033712;28;20033;-70
2022/06/09 06:58:08;;;;;;;18.70;10.27;;;16.70;99.90;;;;;;5033678;28;20024;-69
2022/06/09 07:00:34;;;;;;;24.23;10.73;;;16.80;99.90;;;;;;5034279;28;20083;-69
2022/06/09 07:03:00;;;;;;;21.00;11.20;;;16.80;99.90;;;;;;5033938;28;20037;-69
2022/06/09 07:05:26;;;;;;;18.20;10.68;;;16.80;99.90;;;;;;5033915;28;20398;-69
2022/06/09 07:07:53;;;;;;;15.80;10.68;;;16.80;99.90;;;;;;5033500;28;20029;-70
2022/06/09 07:10:19;;;;;;;24.17;10.52;;;16.70;99.90;;;;;;5036307;28;20022;-70
2022/06/09 07:12:45;;;;;;;21.65;10.88;;;16.70;99.90;;;;;;5037101;28;20040;-70
2022/06/09 07:15:14;;;;;;;20.25;11.20;;;16.70;99.90;;;;;;5033475;28;20479;-70
2022/06/09 07:17:39;;;;;;;19.02;10.50;;;16.70;99.90;;;;;;5033382;28;20025;-70
2022/06/09 07:20:06;;;;;;;20.13;11.10;;;16.90;99.90;;;;;;5030545;28;20021;-70
2022/06/09 07:22:32;;;;;;;25.80;11.95;;;17.00;99.90;;;;;;5033051;28;20107;-71
2022/06/09 07:24:58;;;;;;;19.55;11.93;;;17.10;99.90;;;;;;5033383;28;20467;-72
2022/06/09 07:27:24;;;;;;;21.63;11.38;;;17.20;99.90;;;;;;5033188;28;20071;-70
2022/06/09 07:29:50;;;;;;;22.55;11.80;;;17.30;99.90;;;;;;5033461;28;20033;-70
2022/06/09 07:32:16;;;;;;;24.75;11.63;;;17.40;99.90;;;;;;5033223;28;20109;-70
2022/06/09 07:34:42;;;;;;;18.88;10.80;;;17.50;99.90;;;;;;5033586;28;20040;-70
2022/06/09 07:37:09;;;;;;;18.45;11.50;;;17.50;99.90;;;;;;5033360;28;20033;-70
2022/06/09 07:39:35;;;;;;;19.77;11.55;;;17.40;99.90;;;;;;5039146;28;20026;-71
2022/06/09 07:42:01;;;;;;;24.63;11.38;;;17.30;99.90;;;;;;5043508;28;20047;-69
2022/06/09 07:44:26;;;;;;;17.65;10.25;;;17.30;99.90;;;;;;5026324;28;20037;-70
2022/06/09 07:46:52;;;;;;;16.33;10.05;;;17.30;99.90;;;;;;5043103;28;20029;-69
2022/06/09 07:49:18;;;;;;;19.98;11.13;;;17.30;99.90;;;;;;5041958;28;20386;-70
2022/06/09 07:51:43;;;;;;;22.90;9.90;;;17.30;99.90;;;;;;5035441;28;20166;-70
2022/06/09 07:54:09;;;;;;;17.85;9.52;;;17.30;99.90;;;;;;5034561;28;20033;-70
2022/06/09 07:56:35;;;;;;;15.43;9.70;;;17.30;99.90;;;;;;5019476;28;20606;-70
2022/06/09 07:59:02;;;;;;;21.90;9.25;;;17.40;99.90;;;;;;5035034;28;20067;-70
2022/06/09 08:01:29;;;;;;;17.52;9.57;;;17.50;99.90;;;;;;5032863;28;20029;-71
2022/06/09 08:03:55;;;;;;;16.25;10.02;;;17.50;99.90;;;;;;5034760;28;20108;-70
2022/06/09 08:06:22;;;;;;;17.33;9.43;;;17.40;99.90;;;;;;5018978;28;20107;-71
2022/06/09 08:08:48;;;;;;;13.70;9.85;;;17.40;99.90;;;;;;5036751;28;20025;-71
2022/06/09 08:11:14;;;;;;;22.15;9.95;;;17.40;99.90;;;;;;5036601;28;20087;-70
2022/06/09 08:13:39;;;;;;;14.57;9.15;;;17.40;99.90;;;;;;5019098;28;20021;-71
2022/06/09 08:16:05;;;;;;;21.27;9.45;;;17.50;99.90;;;;;;5018900;28;20025;-71
2022/06/09 08:18:31;;;;;;;14.02;10.18;;;17.40;99.90;;;;;;5036901;28;20025;-70
2022/06/09 08:20:57;;;;;;;17.27;9.43;;;17.50;99.90;;;;;;5037306;28;20352;-70
2022/06/09 08:23:25;;;;;;;21.63;11.13;;;17.40;99.90;;;;;;5036710;28;20017;-70
2022/06/09 08:25:54;;;;;;;17.45;11.30;;;17.50;99.90;;;;;;5036624;28;20025;-71
2022/06/09 08:28:20;;;;;;;18.15;10.45;;;17.30;99.90;;;;;;5018624;28;20431;-70
2022/06/09 08:30:51;;;;;;;17.90;10.43;;;17.20;99.90;;;;;;5036365;28;20095;-70
2022/06/09 08:33:17;;;;;;;19.48;11.55;;;17.20;99.90;;;;;;5036032;28;20029;-70
2022/06/09 08:35:44;;;;;;;15.73;9.48;;;17.30;99.90;;;;;;5035955;28;20032;-70
2022/06/09 08:38:10;;;;;;;15.43;10.05;;;17.50;99.90;;;;;;5035918;28;20382;-70
2022/06/09 08:40:57;;;;;;;15.40;10.32;;;17.60;99.90;;;;;;5027359;28;20085;-69
2022/06/09 08:43:22;;;;;;;16.15;10.10;;;17.70;99.90;;;;;;5001147;28;20094;-70
2022/06/09 08:45:52;;;;;;;14.75;9.63;;;17.90;99.90;;;;;;5016324;28;20041;-71
2022/06/09 08:48:21;;;;;;;17.67;9.90;;;18.00;99.90;;;;;;5015886;28;20022;-70
2022/06/09 08:51:12;;;;;;;16.55;10.57;;;18.20;99.90;;;;;;5016059;28;20112;-70
2022/06/09 08:53:46;;;;;;;18.40;11.55;;;18.20;99.90;;;;;;5015780;28;20018;-70
2022/06/09 08:56:16;;;;;;;21.17;11.77;;;17.90;99.90;;;;;;5015897;28;20026;-70
2022/06/09 08:59:10;;;;;;;19.13;11.27;;;17.90;99.90;;;;;;5015697;28;20014;-71
2022/06/09 09:01:46;;;;;;;17.80;11.75;;;17.70;99.90;;;;;;5015457;28;20483;-70
2022/06/09 09:04:42;;;;;;;18.90;11.63;;;17.50;99.90;;;;;;5016167;28;20030;-71
2022/06/09 09:07:20;;;;;;;15.13;9.73;;;17.50;99.90;;;;;;5015425;28;20105;-71
2022/06/09 09:09:47;;;;;;;15.57;9.63;;;17.70;99.90;;;;;;5015421;28;20030;-71
2022/06/09 09:12:32;;;;;;;17.00;11.25;;;17.80;99.90;;;;;;5015461;28;20028;-71
2022/06/09 09:15:12;;;;;;;16.48;9.50;;;17.90;99.90;;;;;;5014972;28;20029;-71
2022/06/09 09:17:52;;;;;;;16.23;9.13;;;18.20;99.90;;;;;;4997879;28;20037;-71
2022/06/09 09:20:29;;;;;;;14.93;9.73;;;18.40;99.90;;;;;;5015318;28;20476;-70
2022/06/09 09:22:54;;;;;;;16.67;9.95;;;18.60;99.90;;;;;;5015430;28;20350;-70
2022/06/09 09:25:45;;;;;;;12.93;9.73;;;18.80;99.90;;;;;;5017796;28;20029;-69
2022/06/09 09:28:19;;;;;;;14.60;8.95;;;19.00;99.90;;;;;;5028168;28;20029;-70
2022/06/09 09:30:59;;;;;;;16.98;9.57;;;19.10;99.90;;;;;;5015703;28;20108;-70
2022/06/09 09:33:25;;;;;;;14.35;9.27;;;19.10;99.90;;;;;;5016119;28;20061;-71
2022/06/09 09:35:59;;;;;;;18.25;9.52;;;19.10;99.90;;;;;;5015135;28;20018;-70
2022/06/09 09:38:34;;;;;;;14.48;9.23;;;18.80;99.90;;;;;;5027157;28;20018;-70
2022/06/09 09:41:00;;;;;;;12.00;7.68;;;18.80;99.90;;;;;;5035445;28;20026;-71
2022/06/09 09:43:35;;;;;;;16.35;9.10;;;18.90;99.90;;;;;;5035749;28;20331;-70
2022/06/09 09:46:01;;;;;;;13.93;8.88;;;19.10;99.90;;;;;;5034921;28;20083;-70
2022/06/09 09:48:36;;;;;;;13.93;9.07;;;19.20;99.90;;;;;;5035063;28;20108;-71
2022/06/09 09:51:12;;;;;;;12.57;7.93;;;19.50;99.90;;;;;;5035050;28;20021;-70
2022/06/09 09:53:47;;;;;;;13.07;8.32;;;19.50;99.90;;;;;;5034443;28;20035;-70
2022/06/09 09:56:18;;;;;;;10.57;7.22;;;19.40;99.90;;;;;;5016699;28;20394;-70
2022/06/09 09:58:47;;;;;;;11.40;7.75;;;19.50;99.90;;;;;;5034379;28;20179;-70
2022/06/09 10:01:24;;;;;;;12.23;6.97;;;19.70;99.90;;;;;;5034487;28;20431;-70
2022/06/09 10:09:43;;;;;;;9.07;5.93;;;19.90;99.90;;;;;;5034676;28;20068;-70
2022/06/09 10:12:18;;;;;;;11.73;6.78;;;20.00;99.90;;;;;;5036360;28;20108;-71
2022/06/09 10:14:55;;;;;;;11.70;7.28;;;20.10;99.90;;;;;;5018916;28;20083;-71
2022/06/09 10:17:28;;;;;;;10.95;7.80;;;20.10;99.90;;;;;;5035183;28;20026;-71
2022/06/09 10:20:14;;;;;;;17.35;8.43;;;20.00;99.90;;;;;;5035032;28;20032;-70
2022/06/09 10:22:43;;;;;;;9.90;7.45;;;19.90;99.90;;;;;;5013771;28;20101;-70
2022/06/09 10:25:30;;;;;;;12.15;7.07;;;19.90;99.90;;;;;;5034741;28;20025;-70
2022/06/09 10:28:07;;;;;;;13.57;8.00;;;20.00;99.90;;;;;;5034396;28;20028;-70
2022/06/09 10:31:05;;;;;;;13.85;8.48;;;20.20;99.90;;;;;;5035189;28;20418;-70
2022/06/09 10:33:56;;;;;;;15.70;8.82;;;20.30;99.90;;;;;;5034701;28;20032;-70
2022/06/09 10:36:48;;;;;;;12.77;8.65;;;20.20;99.90;;;;;;5016617;28;20060;-70
2022/06/09 10:39:14;;;;;;;8.80;7.88;;;20.10;99.90;;;;;;5015847;28;20021;-70
2022/06/09 10:41:59;;;;;;;14.90;7.38;;;20.00;99.90;;;;;;5033360;28;20025;-70
2022/06/09 10:44:41;;;;;;;10.38;7.10;;;20.00;99.90;;;;;;5009259;28;20033;-71
2022/06/09 10:56:25;;;;;;;10.82;6.65;;;20.40;99.90;;;;;;5021541;28;20044;-70
2022/06/09 10:59:01;;;;;;;7.90;5.75;;;20.40;99.90;;;;;;5033629;28;20170;-70
2022/06/09 11:01:32;;;;;;;8.13;6.47;;;20.70;99.90;;;;;;5033735;28;20017;-70
2022/06/09 11:03:58;;;;;;;;;;;20.70;99.90;;;;;;5034780;28;20037;-70
2022/06/09 11:06:32;;;;;;;10.35;6.57;;;20.70;99.90;;;;;;5033892;28;19909;-70
2022/06/09 11:09:20;;;;;;;11.35;5.90;;;20.90;99.90;;;;;;5026289;28;20041;-71
2022/06/09 11:12:03;;;;;;;9.70;5.45;;;21.10;99.90;;;;;;5022263;28;20028;-69
2022/06/09 11:14:52;;;;;;;7.40;5.10;;;21.00;99.90;;;;;;5020294;28;20030;-70
2022/06/09 11:17:24;;;;;;;10.05;5.53;;;21.10;99.90;;;;;;5033210;28;20036;-70
2022/06/09 11:20:27;;;;;;;9.98;5.68;;;20.90;99.90;;;;;;5033170;28;20026;-70
2022/06/09 11:23:13;;;;;;;9.40;6.18;;;21.00;99.90;;;;;;4976087;28;20396;-70
2022/06/09 11:25:52;;;;;;;9.90;7.35;;;21.10;99.90;;;;;;4992304;28;20030;-70
2022/06/09 11:28:46;;;;;;;5.88;4.63;;;21.10;99.90;;;;;;5018575;28;20494;-70
2022/06/09 11:31:35;;;;;;;6.70;4.78;;;21.00;99.90;;;;;;5019957;28;20033;-70
2022/06/09 11:34:19;;;;;;;9.13;5.47;;;21.10;99.90;;;;;;5027389;28;20432;-70
2022/06/09 11:36:59;;;;;;;6.70;4.80;;;21.40;99.90;;;;;;5028051;28;20032;-70
2022/06/09 11:39:46;;;;;;;10.43;5.93;;;21.30;99.90;;;;;;5031999;28;20028;-70
2022/06/09 11:42:20;;;;;;;8.32;5.50;;;21.30;99.90;;;;;;5015813;28;20028;-70
2022/06/09 11:44:48;;;;;;;8.05;5.40;;;21.30;99.90;;;;;;5032890;28;20029;-70
2022/06/09 11:47:21;;;;;;;8.73;5.38;;;21.40;99.90;;;;;;5028160;28;20390;-70
2022/06/09 11:50:01;;;;;;;7.65;4.25;;;21.40;99.90;;;;;;5026004;28;20434;-70
2022/06/09 11:52:35;;;;;;;9.27;4.47;;;21.60;99.90;;;;;;5025879;28;20377;-70
2022/06/09 11:55:07;;;;;;;4.78;3.85;;;21.50;99.90;;;;;;5025315;28;20021;-70
2022/06/09 11:57:45;;;;;;;6.60;4.45;;;21.40;99.90;;;;;;5025820;28;20040;-70
2022/06/09 12:00:26;;;;;;;7.43;4.55;;;21.30;99.90;;;;;;5008582;28;20029;-70
2022/06/09 12:03:13;;;;;;;8.20;4.82;;;21.20;99.90;;;;;;5026576;28;20402;-70
2022/06/09 12:05:49;;;;;;;6.18;4.60;;;21.30;99.90;;;;;;5027861;28;20029;-70
2022/06/09 12:08:46;;;;;;;7.20;4.32;;;21.50;99.90;;;;;;5027488;28;20028;-71
2022/06/09 12:11:20;;;;;;;6.05;4.13;;;21.50;99.90;;;;;;5026496;28;20072;-69
2022/06/09 12:13:54;;;;;;;6.93;4.07;;;21.50;99.90;;;;;;5027760;28;20534;-70
2022/06/09 12:16:25;;;;;;;5.75;3.40;;;21.40;99.90;;;;;;5036304;28;20112;-69
2022/06/09 12:19:00;;;;;;;4.22;3.20;;;21.30;99.90;;;;;;5022777;28;20022;-70
2022/06/09 12:21:33;;;;;;;7.03;3.35;;;21.30;99.90;;;;;;5033230;28;20021;-70
2022/06/09 12:24:01;;;;;;;4.90;2.90;;;21.30;99.90;;;;;;5026889;28;20136;-70
2022/06/09 12:26:36;;;;;;;4.18;3.08;;;21.40;99.90;;;;;;5023929;28;20033;-70
2022/06/09 12:29:35;;;;;;;5.13;3.28;;;21.40;99.90;;;;;;5085419;23;20102;-75
2022/06/09 12:32:07;;;;;;;5.28;3.38;;;21.40;99.90;;;;;;5038992;28;20025;-75
2022/06/09 12:34:38;;;;;;;6.18;3.33;;;21.10;99.90;;;;;;5038946;28;20033;-75
2022/06/09 12:37:05;;;;;;;4.87;2.73;;;21.00;99.90;;;;;;5020578;28;20033;-76
2022/06/09 12:39:40;;;;;;;2.67;2.47;;;20.90;99.90;;;;;;5038952;28;20677;-75
2022/06/09 12:42:38;;;;;;;3.35;2.50;;;20.80;99.90;;;;;;5038643;28;20029;-76
2022/06/09 12:45:17;;;;;;;2.58;2.08;;;20.60;99.90;;;;;;5021318;28;20557;-76
2022/06/09 12:47:57;;;;;;;2.45;1.92;;;20.60;99.90;;;;;;5038761;28;20160;-76
2022/06/09 12:50:48;;;;;;;4.18;1.90;;;20.70;99.90;;;;;;5019943;28;20025;-75
2022/06/09 12:53:19;;;;;;;;;;;20.60;99.90;;;;;;5032869;28;20030;-75
2022/06/09 12:55:54;;;;;;;4.37;2.13;;;20.60;99.90;;;;;;5058762;28;19909;-75
2022/06/09 12:58:24;;;;;;;2.75;2.30;;;20.60;99.90;;;;;;5040374;28;20095;-75
2022/06/09 13:00:59;;;;;;;3.28;2.42;;;20.50;99.90;;;;;;5041175;28;20021;-75
2022/06/09 13:03:31;;;;;;;3.60;2.20;;;20.60;99.90;;;;;;5037188;28;20029;-75
2022/06/09 13:06:27;;;;;;;3.47;2.10;;;20.60;99.90;;;;;;5051921;28;20029;-74
2022/06/09 13:09:00;;;;;;;2.88;1.98;;;20.70;99.90;;;;;;5059261;28;20033;-75
2022/06/09 13:14:25;;;;;;;4.72;1.83;;;20.90;99.90;;;;;;5056965;28;20039;-74
2022/06/09 13:16:55;;;;;;;2.70;1.75;;;21.10;99.90;;;;;;5059406;28;20031;-75
2022/06/09 13:19:25;;;;;;;3.53;1.85;;;21.30;99.90;;;;;;5056334;28;20027;-74